< < Back
Terminal Aerodrome Forecast


Current Version              Previous Versions:   1  2  3  4  5  6  7  8  9  

Terminal Aerodrome Forecast

692
FTUS42 KFFC 260540
TAFFTY
TAF
KFTY 260540Z 2606/2706 VRB03KT P6SM SCT100
     FM261000 00000KT 5SM BR SCT250
     FM261300 22006KT P6SM SCT040 PROB30 2619/2623 4SM -TSRA BR
      BKN035CB
     FM270200 18005KT P6SM SCT250=

Latest METAR

715
SAUS70 KWBC 261400 RRC
MTRFTY
METAR KFTY 261353Z 00000KT 10SM CLR 28/23 A3009 RMK AO2 SLP177
T02780228


USA.gov is the U.S. government's official web portal to all federal, state and local government web resources and services.